sensor_id;sensor_type;location;lat;lon;timestamp;P1;durP1;ratioP1;P2;durP2;ratioP2
1925;SDS011;964;42.606;23.588;2023-08-30T00:01:56;12.30;;;11.03;;
1925;SDS011;964;42.606;23.588;2023-08-30T00:04:23;14.90;;;11.80;;
1925;SDS011;964;42.606;23.588;2023-08-30T00:06:49;12.73;;;11.37;;
1925;SDS011;964;42.606;23.588;2023-08-30T00:09:16;16.13;;;12.30;;
1925;SDS011;964;42.606;23.588;2023-08-30T00:11:43;15.43;;;12.63;;
1925;SDS011;964;42.606;23.588;2023-08-30T00:14:11;13.47;;;12.07;;
1925;SDS011;964;42.606;23.588;2023-08-30T00:16:38;17.10;;;12.47;;
1925;SDS011;964;42.606;23.588;2023-08-30T00:19:04;18.43;;;12.50;;
1925;SDS011;964;42.606;23.588;2023-08-30T00:21:32;13.07;;;11.53;;
1925;SDS011;964;42.606;23.588;2023-08-30T00:23:59;16.13;;;11.30;;
1925;SDS011;964;42.606;23.588;2023-08-30T00:26:25;15.37;;;12.47;;
1925;SDS011;964;42.606;23.588;2023-08-30T00:28:52;14.47;;;12.00;;
1925;SDS011;964;42.606;23.588;2023-08-30T00:31:20;15.23;;;12.33;;
1925;SDS011;964;42.606;23.588;2023-08-30T00:33:48;14.73;;;12.50;;
1925;SDS011;964;42.606;23.588;2023-08-30T00:36:14;13.80;;;12.20;;
1925;SDS011;964;42.606;23.588;2023-08-30T00:38:42;15.63;;;13.80;;
1925;SDS011;964;42.606;23.588;2023-08-30T00:41:08;16.03;;;11.57;;
1925;SDS011;964;42.606;23.588;2023-08-30T00:43:35;15.43;;;12.13;;
1925;SDS011;964;42.606;23.588;2023-08-30T00:46:02;13.43;;;12.03;;
1925;SDS011;964;42.606;23.588;2023-08-30T00:48:30;12.57;;;11.00;;
1925;SDS011;964;42.606;23.588;2023-08-30T00:50:57;20.70;;;12.37;;
1925;SDS011;964;42.606;23.588;2023-08-30T00:53:24;15.23;;;11.57;;
1925;SDS011;964;42.606;23.588;2023-08-30T00:55:51;12.50;;;10.67;;
1925;SDS011;964;42.606;23.588;2023-08-30T00:58:17;14.23;;;12.20;;
1925;SDS011;964;42.606;23.588;2023-08-30T01:00:44;15.20;;;11.77;;
1925;SDS011;964;42.606;23.588;2023-08-30T01:03:12;13.13;;;11.10;;
1925;SDS011;964;42.606;23.588;2023-08-30T01:05:40;13.93;;;11.60;;
1925;SDS011;964;42.606;23.588;2023-08-30T01:08:07;14.43;;;11.40;;
1925;SDS011;964;42.606;23.588;2023-08-30T01:10:38;13.90;;;12.23;;
1925;SDS011;964;42.606;23.588;2023-08-30T01:13:14;20.07;;;11.23;;
1925;SDS011;964;42.606;23.588;2023-08-30T01:15:46;13.30;;;11.90;;
1925;SDS011;964;42.606;23.588;2023-08-30T01:18:14;11.63;;;10.40;;
1925;SDS011;964;42.606;23.588;2023-08-30T01:20:45;11.73;;;10.27;;
1925;SDS011;964;42.606;23.588;2023-08-30T01:23:16;13.10;;;10.53;;
1925;SDS011;964;42.606;23.588;2023-08-30T01:25:53;12.70;;;10.33;;
1925;SDS011;964;42.606;23.588;2023-08-30T01:28:28;13.60;;;10.70;;
1925;SDS011;964;42.606;23.588;2023-08-30T01:30:58;11.60;;;9.73;;
1925;SDS011;964;42.606;23.588;2023-08-30T01:33:25;12.40;;;11.00;;
1925;SDS011;964;42.606;23.588;2023-08-30T01:35:53;13.83;;;10.80;;
1925;SDS011;964;42.606;23.588;2023-08-30T01:38:21;15.37;;;10.37;;
1925;SDS011;964;42.606;23.588;2023-08-30T01:40:50;15.00;;;10.30;;
1925;SDS011;964;42.606;23.588;2023-08-30T01:43:18;13.60;;;11.03;;
1925;SDS011;964;42.606;23.588;2023-08-30T01:45:48;10.57;;;9.47;;
1925;SDS011;964;42.606;23.588;2023-08-30T01:48:15;12.43;;;11.13;;
1925;SDS011;964;42.606;23.588;2023-08-30T01:50:43;13.17;;;11.43;;
1925;SDS011;964;42.606;23.588;2023-08-30T01:53:11;13.23;;;10.90;;
1925;SDS011;964;42.606;23.588;2023-08-30T01:55:39;15.10;;;11.07;;
1925;SDS011;964;42.606;23.588;2023-08-30T01:58:06;15.67;;;12.27;;
1925;SDS011;964;42.606;23.588;2023-08-30T02:00:34;12.93;;;11.60;;
1925;SDS011;964;42.606;23.588;2023-08-30T02:03:08;17.07;;;12.83;;
1925;SDS011;964;42.606;23.588;2023-08-30T02:05:35;16.50;;;12.47;;
1925;SDS011;964;42.606;23.588;2023-08-30T02:08:08;13.93;;;12.00;;
1925;SDS011;964;42.606;23.588;2023-08-30T02:10:40;12.40;;;11.03;;
1925;SDS011;964;42.606;23.588;2023-08-30T02:13:11;14.17;;;11.53;;
1925;SDS011;964;42.606;23.588;2023-08-30T02:15:39;17.40;;;12.17;;
1925;SDS011;964;42.606;23.588;2023-08-30T02:18:10;14.40;;;11.30;;
1925;SDS011;964;42.606;23.588;2023-08-30T02:20:37;12.43;;;11.20;;
1925;SDS011;964;42.606;23.588;2023-08-30T02:23:03;14.23;;;11.63;;
1925;SDS011;964;42.606;23.588;2023-08-30T02:25:30;12.97;;;11.37;;
1925;SDS011;964;42.606;23.588;2023-08-30T02:27:57;11.43;;;10.23;;
1925;SDS011;964;42.606;23.588;2023-08-30T02:30:23;11.87;;;10.67;;
1925;SDS011;964;42.606;23.588;2023-08-30T02:32:50;12.73;;;11.40;;
1925;SDS011;964;42.606;23.588;2023-08-30T02:35:18;18.07;;;13.40;;
1925;SDS011;964;42.606;23.588;2023-08-30T02:37:45;14.00;;;12.50;;
1925;SDS011;964;42.606;23.588;2023-08-30T02:40:11;12.73;;;11.40;;
1925;SDS011;964;42.606;23.588;2023-08-30T02:42:38;14.33;;;11.77;;
1925;SDS011;964;42.606;23.588;2023-08-30T02:45:05;14.13;;;11.30;;
1925;SDS011;964;42.606;23.588;2023-08-30T02:47:32;15.30;;;11.27;;
1925;SDS011;964;42.606;23.588;2023-08-30T02:49:59;13.10;;;10.80;;
1925;SDS011;964;42.606;23.588;2023-08-30T02:52:27;15.60;;;11.90;;
1925;SDS011;964;42.606;23.588;2023-08-30T02:54:53;13.03;;;10.67;;
1925;SDS011;964;42.606;23.588;2023-08-30T02:57:20;11.80;;;10.20;;
1925;SDS011;964;42.606;23.588;2023-08-30T02:59:47;16.80;;;10.70;;
1925;SDS011;964;42.606;23.588;2023-08-30T03:02:13;10.37;;;9.27;;
1925;SDS011;964;42.606;23.588;2023-08-30T03:04:40;12.93;;;9.73;;
1925;SDS011;964;42.606;23.588;2023-08-30T03:07:06;12.87;;;8.90;;
1925;SDS011;964;42.606;23.588;2023-08-30T03:09:34;13.40;;;9.30;;
1925;SDS011;964;42.606;23.588;2023-08-30T03:12:01;10.80;;;9.30;;
1925;SDS011;964;42.606;23.588;2023-08-30T03:14:28;11.93;;;8.10;;
1925;SDS011;964;42.606;23.588;2023-08-30T03:16:54;9.03;;;8.10;;
1925;SDS011;964;42.606;23.588;2023-08-30T03:19:21;11.20;;;7.73;;
1925;SDS011;964;42.606;23.588;2023-08-30T03:21:47;11.03;;;7.70;;
1925;SDS011;964;42.606;23.588;2023-08-30T03:24:14;8.50;;;7.03;;
1925;SDS011;964;42.606;23.588;2023-08-30T03:26:43;8.27;;;7.27;;
1925;SDS011;964;42.606;23.588;2023-08-30T03:29:10;9.80;;;7.67;;
1925;SDS011;964;42.606;23.588;2023-08-30T03:31:36;9.60;;;7.90;;
1925;SDS011;964;42.606;23.588;2023-08-30T03:34:03;9.13;;;7.50;;
1925;SDS011;964;42.606;23.588;2023-08-30T03:36:30;10.10;;;8.57;;
1925;SDS011;964;42.606;23.588;2023-08-30T03:38:56;11.33;;;7.37;;
1925;SDS011;964;42.606;23.588;2023-08-30T03:41:23;8.37;;;7.47;;
1925;SDS011;964;42.606;23.588;2023-08-30T03:43:51;8.37;;;7.50;;
1925;SDS011;964;42.606;23.588;2023-08-30T03:46:18;10.13;;;7.77;;
1925;SDS011;964;42.606;23.588;2023-08-30T03:48:44;8.60;;;7.13;;
1925;SDS011;964;42.606;23.588;2023-08-30T03:51:11;20.03;;;8.10;;
1925;SDS011;964;42.606;23.588;2023-08-30T03:53:37;9.27;;;6.97;;
1925;SDS011;964;42.606;23.588;2023-08-30T03:56:04;11.80;;;7.50;;
1925;SDS011;964;42.606;23.588;2023-08-30T03:58:31;9.57;;;7.17;;
1925;SDS011;964;42.606;23.588;2023-08-30T04:00:59;8.80;;;7.50;;
1925;SDS011;964;42.606;23.588;2023-08-30T04:03:26;10.47;;;7.20;;
1925;SDS011;964;42.606;23.588;2023-08-30T04:05:54;9.53;;;8.00;;
1925;SDS011;964;42.606;23.588;2023-08-30T04:08:22;10.37;;;7.00;;
1925;SDS011;964;42.606;23.588;2023-08-30T04:10:51;8.17;;;7.33;;
1925;SDS011;964;42.606;23.588;2023-08-30T04:13:19;9.03;;;7.17;;
1925;SDS011;964;42.606;23.588;2023-08-30T04:15:45;11.83;;;8.23;;
1925;SDS011;964;42.606;23.588;2023-08-30T04:18:13;13.50;;;7.17;;
1925;SDS011;964;42.606;23.588;2023-08-30T04:20:43;12.13;;;7.27;;
1925;SDS011;964;42.606;23.588;2023-08-30T04:23:10;14.73;;;7.60;;
1925;SDS011;964;42.606;23.588;2023-08-30T04:25:37;12.63;;;7.93;;
1925;SDS011;964;42.606;23.588;2023-08-30T04:28:04;12.40;;;8.07;;
1925;SDS011;964;42.606;23.588;2023-08-30T04:30:31;9.77;;;7.30;;
1925;SDS011;964;42.606;23.588;2023-08-30T04:32:58;12.20;;;8.40;;
1925;SDS011;964;42.606;23.588;2023-08-30T04:35:27;8.20;;;7.40;;
1925;SDS011;964;42.606;23.588;2023-08-30T04:37:54;10.07;;;7.57;;
1925;SDS011;964;42.606;23.588;2023-08-30T04:40:20;11.37;;;7.17;;
1925;SDS011;964;42.606;23.588;2023-08-30T04:42:47;8.27;;;7.20;;
1925;SDS011;964;42.606;23.588;2023-08-30T04:45:13;8.90;;;7.33;;
1925;SDS011;964;42.606;23.588;2023-08-30T04:47:40;9.90;;;7.70;;
1925;SDS011;964;42.606;23.588;2023-08-30T04:50:08;9.67;;;8.07;;
1925;SDS011;964;42.606;23.588;2023-08-30T04:52:36;11.57;;;7.33;;
1925;SDS011;964;42.606;23.588;2023-08-30T04:55:03;10.50;;;8.00;;
1925;SDS011;964;42.606;23.588;2023-08-30T04:57:30;8.90;;;7.07;;
1925;SDS011;964;42.606;23.588;2023-08-30T04:59:57;9.33;;;7.37;;
1925;SDS011;964;42.606;23.588;2023-08-30T05:02:24;11.00;;;7.80;;
1925;SDS011;964;42.606;23.588;2023-08-30T05:04:51;10.40;;;7.97;;
1925;SDS011;964;42.606;23.588;2023-08-30T05:07:18;10.17;;;8.50;;
1925;SDS011;964;42.606;23.588;2023-08-30T05:09:46;8.73;;;7.40;;
1925;SDS011;964;42.606;23.588;2023-08-30T05:12:12;10.23;;;8.10;;
1925;SDS011;964;42.606;23.588;2023-08-30T05:14:39;11.10;;;7.90;;
1925;SDS011;964;42.606;23.588;2023-08-30T05:17:06;9.23;;;7.93;;
1925;SDS011;964;42.606;23.588;2023-08-30T05:19:33;13.00;;;8.40;;
1925;SDS011;964;42.606;23.588;2023-08-30T05:22:00;10.90;;;8.73;;
1925;SDS011;964;42.606;23.588;2023-08-30T05:24:26;9.73;;;8.40;;
1925;SDS011;964;42.606;23.588;2023-08-30T05:26:54;11.27;;;9.70;;
1925;SDS011;964;42.606;23.588;2023-08-30T05:29:21;11.53;;;8.67;;
1925;SDS011;964;42.606;23.588;2023-08-30T05:31:47;11.60;;;9.03;;
1925;SDS011;964;42.606;23.588;2023-08-30T05:34:14;17.13;;;10.20;;
1925;SDS011;964;42.606;23.588;2023-08-30T05:36:41;13.63;;;9.50;;
1925;SDS011;964;42.606;23.588;2023-08-30T05:39:07;14.40;;;10.07;;
1925;SDS011;964;42.606;23.588;2023-08-30T05:41:34;15.70;;;10.60;;
1925;SDS011;964;42.606;23.588;2023-08-30T05:44:02;11.73;;;10.40;;
1925;SDS011;964;42.606;23.588;2023-08-30T05:46:29;13.50;;;9.73;;
1925;SDS011;964;42.606;23.588;2023-08-30T05:48:56;12.43;;;9.93;;
1925;SDS011;964;42.606;23.588;2023-08-30T05:51:23;12.60;;;11.03;;
1925;SDS011;964;42.606;23.588;2023-08-30T05:53:50;18.07;;;11.80;;
1925;SDS011;964;42.606;23.588;2023-08-30T05:56:16;10.80;;;9.50;;
1925;SDS011;964;42.606;23.588;2023-08-30T05:58:43;12.00;;;10.60;;
1925;SDS011;964;42.606;23.588;2023-08-30T06:01:11;16.10;;;10.30;;
1925;SDS011;964;42.606;23.588;2023-08-30T06:03:37;12.57;;;11.00;;
1925;SDS011;964;42.606;23.588;2023-08-30T06:06:04;12.83;;;10.77;;
1925;SDS011;964;42.606;23.588;2023-08-30T06:08:31;12.63;;;10.93;;
1925;SDS011;964;42.606;23.588;2023-08-30T06:10:58;12.47;;;10.00;;
1925;SDS011;964;42.606;23.588;2023-08-30T06:13:25;11.63;;;9.47;;
1925;SDS011;964;42.606;23.588;2023-08-30T06:15:51;14.47;;;10.53;;
1925;SDS011;964;42.606;23.588;2023-08-30T06:18:19;11.53;;;10.10;;
1925;SDS011;964;42.606;23.588;2023-08-30T06:20:46;12.27;;;10.97;;
1925;SDS011;964;42.606;23.588;2023-08-30T06:23:13;15.97;;;10.43;;
1925;SDS011;964;42.606;23.588;2023-08-30T06:25:41;13.53;;;8.90;;
1925;SDS011;964;42.606;23.588;2023-08-30T06:28:07;11.57;;;8.77;;
1925;SDS011;964;42.606;23.588;2023-08-30T06:30:34;10.07;;;8.73;;
1925;SDS011;964;42.606;23.588;2023-08-30T06:33:01;11.07;;;7.80;;
1925;SDS011;964;42.606;23.588;2023-08-30T06:35:29;8.70;;;7.80;;
1925;SDS011;964;42.606;23.588;2023-08-30T06:37:56;11.40;;;7.87;;
1925;SDS011;964;42.606;23.588;2023-08-30T06:40:22;10.00;;;7.70;;
1925;SDS011;964;42.606;23.588;2023-08-30T06:42:51;12.90;;;8.13;;
1925;SDS011;964;42.606;23.588;2023-08-30T06:45:17;9.80;;;7.50;;
1925;SDS011;964;42.606;23.588;2023-08-30T06:47:44;7.80;;;6.97;;
1925;SDS011;964;42.606;23.588;2023-08-30T06:50:10;10.10;;;7.67;;
1925;SDS011;964;42.606;23.588;2023-08-30T06:52:38;15.10;;;8.83;;
1925;SDS011;964;42.606;23.588;2023-08-30T06:55:05;11.13;;;7.73;;
1925;SDS011;964;42.606;23.588;2023-08-30T06:57:32;10.07;;;7.30;;
1925;SDS011;964;42.606;23.588;2023-08-30T06:59:59;12.10;;;8.10;;
1925;SDS011;964;42.606;23.588;2023-08-30T07:02:32;10.37;;;6.87;;
1925;SDS011;964;42.606;23.588;2023-08-30T07:05:00;10.53;;;8.23;;
1925;SDS011;964;42.606;23.588;2023-08-30T07:07:26;9.67;;;7.57;;
1925;SDS011;964;42.606;23.588;2023-08-30T07:09:54;9.20;;;7.30;;
1925;SDS011;964;42.606;23.588;2023-08-30T07:12:21;10.43;;;7.60;;
1925;SDS011;964;42.606;23.588;2023-08-30T07:14:48;7.93;;;7.13;;
1925;SDS011;964;42.606;23.588;2023-08-30T07:17:14;15.90;;;6.73;;
1925;SDS011;964;42.606;23.588;2023-08-30T07:19:41;10.80;;;7.07;;
1925;SDS011;964;42.606;23.588;2023-08-30T07:22:07;11.40;;;6.57;;
1925;SDS011;964;42.606;23.588;2023-08-30T07:24:34;12.43;;;6.83;;
1925;SDS011;964;42.606;23.588;2023-08-30T07:27:02;10.67;;;7.23;;
1925;SDS011;964;42.606;23.588;2023-08-30T07:29:29;8.20;;;7.13;;
1925;SDS011;964;42.606;23.588;2023-08-30T07:31:57;10.13;;;6.87;;
1925;SDS011;964;42.606;23.588;2023-08-30T07:34:23;10.23;;;7.03;;
1925;SDS011;964;42.606;23.588;2023-08-30T07:36:50;11.80;;;6.93;;
1925;SDS011;964;42.606;23.588;2023-08-30T07:39:20;9.60;;;6.53;;
1925;SDS011;964;42.606;23.588;2023-08-30T07:41:47;11.07;;;7.57;;
1925;SDS011;964;42.606;23.588;2023-08-30T07:44:15;9.53;;;6.33;;
1925;SDS011;964;42.606;23.588;2023-08-30T07:46:41;9.87;;;6.67;;
1925;SDS011;964;42.606;23.588;2023-08-30T07:49:08;10.17;;;7.17;;
1925;SDS011;964;42.606;23.588;2023-08-30T07:51:34;16.20;;;7.60;;
1925;SDS011;964;42.606;23.588;2023-08-30T07:54:01;14.60;;;7.90;;
1925;SDS011;964;42.606;23.588;2023-08-30T07:56:28;7.50;;;6.80;;
1925;SDS011;964;42.606;23.588;2023-08-30T07:58:55;7.83;;;7.03;;
1925;SDS011;964;42.606;23.588;2023-08-30T08:01:24;10.37;;;7.77;;
1925;SDS011;964;42.606;23.588;2023-08-30T08:03:51;7.70;;;7.00;;
1925;SDS011;964;42.606;23.588;2023-08-30T08:06:17;9.00;;;6.90;;
1925;SDS011;964;42.606;23.588;2023-08-30T08:08:44;10.83;;;7.70;;
1925;SDS011;964;42.606;23.588;2023-08-30T08:11:10;11.17;;;7.50;;
1925;SDS011;964;42.606;23.588;2023-08-30T08:13:37;7.70;;;6.70;;
1925;SDS011;964;42.606;23.588;2023-08-30T08:16:04;7.90;;;5.80;;
1925;SDS011;964;42.606;23.588;2023-08-30T08:18:31;6.57;;;5.97;;
1925;SDS011;964;42.606;23.588;2023-08-30T08:20:58;7.10;;;6.40;;
1925;SDS011;964;42.606;23.588;2023-08-30T08:23:25;7.30;;;6.60;;
1925;SDS011;964;42.606;23.588;2023-08-30T08:25:56;7.90;;;7.20;;
1925;SDS011;964;42.606;23.588;2023-08-30T08:28:24;10.00;;;6.40;;
1925;SDS011;964;42.606;23.588;2023-08-30T08:30:50;6.63;;;5.93;;
1925;SDS011;964;42.606;23.588;2023-08-30T08:33:17;9.63;;;5.93;;
1925;SDS011;964;42.606;23.588;2023-08-30T08:35:47;5.93;;;5.37;;
1925;SDS011;964;42.606;23.588;2023-08-30T08:38:14;5.63;;;4.97;;
1925;SDS011;964;42.606;23.588;2023-08-30T08:40:40;7.47;;;5.60;;
1925;SDS011;964;42.606;23.588;2023-08-30T08:43:08;6.30;;;5.70;;
1925;SDS011;964;42.606;23.588;2023-08-30T08:45:37;6.53;;;5.90;;
1925;SDS011;964;42.606;23.588;2023-08-30T08:48:04;6.43;;;5.90;;
1925;SDS011;964;42.606;23.588;2023-08-30T08:50:31;12.13;;;6.10;;
1925;SDS011;964;42.606;23.588;2023-08-30T08:53:00;9.73;;;5.30;;
1925;SDS011;964;42.606;23.588;2023-08-30T08:55:28;7.30;;;5.90;;
1925;SDS011;964;42.606;23.588;2023-08-30T08:57:56;6.93;;;4.80;;
1925;SDS011;964;42.606;23.588;2023-08-30T09:00:23;6.37;;;5.80;;
1925;SDS011;964;42.606;23.588;2023-08-30T09:02:51;6.20;;;5.60;;
1925;SDS011;964;42.606;23.588;2023-08-30T09:05:19;5.70;;;5.10;;
1925;SDS011;964;42.606;23.588;2023-08-30T09:07:46;7.33;;;5.40;;
1925;SDS011;964;42.606;23.588;2023-08-30T09:10:14;9.17;;;5.27;;
1925;SDS011;964;42.606;23.588;2023-08-30T09:12:42;5.97;;;5.47;;
1925;SDS011;964;42.606;23.588;2023-08-30T09:15:08;6.50;;;5.07;;
1925;SDS011;964;42.606;23.588;2023-08-30T09:17:36;5.77;;;5.17;;
1925;SDS011;964;42.606;23.588;2023-08-30T09:20:07;5.40;;;4.90;;
1925;SDS011;964;42.606;23.588;2023-08-30T09:22:38;5.93;;;5.33;;
1925;SDS011;964;42.606;23.588;2023-08-30T09:25:06;5.50;;;4.97;;
1925;SDS011;964;42.606;23.588;2023-08-30T09:27:35;9.33;;;5.03;;
1925;SDS011;964;42.606;23.588;2023-08-30T09:30:04;6.50;;;4.47;;
1925;SDS011;964;42.606;23.588;2023-08-30T09:32:38;5.47;;;4.70;;
1925;SDS011;964;42.606;23.588;2023-08-30T09:35:05;5.10;;;4.60;;
1925;SDS011;964;42.606;23.588;2023-08-30T09:37:32;5.43;;;4.87;;
1925;SDS011;964;42.606;23.588;2023-08-30T09:39:58;6.53;;;5.83;;
1925;SDS011;964;42.606;23.588;2023-08-30T09:42:25;9.93;;;6.43;;
1925;SDS011;964;42.606;23.588;2023-08-30T09:44:53;5.40;;;4.90;;
1925;SDS011;964;42.606;23.588;2023-08-30T09:47:20;6.90;;;5.00;;
1925;SDS011;964;42.606;23.588;2023-08-30T09:49:51;5.70;;;4.83;;
1925;SDS011;964;42.606;23.588;2023-08-30T09:52:22;5.20;;;4.80;;
1925;SDS011;964;42.606;23.588;2023-08-30T09:54:50;6.60;;;5.00;;
1925;SDS011;964;42.606;23.588;2023-08-30T09:57:17;4.93;;;4.43;;
1925;SDS011;964;42.606;23.588;2023-08-30T09:59:46;6.03;;;4.90;;
1925;SDS011;964;42.606;23.588;2023-08-30T10:02:16;5.67;;;4.93;;
1925;SDS011;964;42.606;23.588;2023-08-30T10:04:44;5.80;;;5.20;;
1925;SDS011;964;42.606;23.588;2023-08-30T10:07:11;8.10;;;5.80;;
1925;SDS011;964;42.606;23.588;2023-08-30T10:09:39;5.33;;;4.77;;
1925;SDS011;964;42.606;23.588;2023-08-30T10:12:07;6.95;;;5.35;;
1925;SDS011;964;42.606;23.588;2023-08-30T10:14:35;5.60;;;5.10;;
1925;SDS011;964;42.606;23.588;2023-08-30T10:17:02;6.10;;;5.20;;
1925;SDS011;964;42.606;23.588;2023-08-30T10:19:30;6.38;;;5.78;;
1925;SDS011;964;42.606;23.588;2023-08-30T10:22:00;6.30;;;5.05;;
1925;SDS011;964;42.606;23.588;2023-08-30T10:24:29;9.00;;;5.50;;
1925;SDS011;964;42.606;23.588;2023-08-30T10:26:59;6.20;;;5.60;;
1925;SDS011;964;42.606;23.588;2023-08-30T10:29:28;7.30;;;5.27;;
1925;SDS011;964;42.606;23.588;2023-08-30T10:32:01;6.57;;;5.13;;
1925;SDS011;964;42.606;23.588;2023-08-30T10:34:32;9.67;;;6.57;;
1925;SDS011;964;42.606;23.588;2023-08-30T10:37:01;9.37;;;5.93;;
1925;SDS011;964;42.606;23.588;2023-08-30T10:39:38;6.30;;;5.60;;
1925;SDS011;964;42.606;23.588;2023-08-30T10:42:09;6.97;;;5.50;;
1925;SDS011;964;42.606;23.588;2023-08-30T10:44:46;6.67;;;6.00;;
1925;SDS011;964;42.606;23.588;2023-08-30T10:47:21;7.90;;;6.37;;
1925;SDS011;964;42.606;23.588;2023-08-30T10:49:52;8.03;;;6.30;;
1925;SDS011;964;42.606;23.588;2023-08-30T10:52:20;5.60;;;5.10;;
1925;SDS011;964;42.606;23.588;2023-08-30T10:54:47;7.30;;;6.13;;
1925;SDS011;964;42.606;23.588;2023-08-30T10:57:14;8.55;;;6.00;;
1925;SDS011;964;42.606;23.588;2023-08-30T11:00:03;11.73;;;5.85;;
1925;SDS011;964;42.606;23.588;2023-08-30T11:02:30;7.07;;;5.57;;
1925;SDS011;964;42.606;23.588;2023-08-30T11:05:00;7.18;;;6.35;;
1925;SDS011;964;42.606;23.588;2023-08-30T11:07:28;7.87;;;6.30;;
1925;SDS011;964;42.606;23.588;2023-08-30T11:09:55;7.47;;;6.10;;
1925;SDS011;964;42.606;23.588;2023-08-30T11:12:22;9.80;;;6.40;;
1925;SDS011;964;42.606;23.588;2023-08-30T11:14:51;11.10;;;6.47;;
1925;SDS011;964;42.606;23.588;2023-08-30T11:17:18;6.93;;;5.60;;
1925;SDS011;964;42.606;23.588;2023-08-30T11:19:45;8.60;;;5.83;;
1925;SDS011;964;42.606;23.588;2023-08-30T11:22:13;6.63;;;5.30;;
1925;SDS011;964;42.606;23.588;2023-08-30T11:24:40;7.53;;;5.43;;
1925;SDS011;964;42.606;23.588;2023-08-30T11:27:07;6.90;;;5.70;;
1925;SDS011;964;42.606;23.588;2023-08-30T11:29:34;7.17;;;6.47;;
1925;SDS011;964;42.606;23.588;2023-08-30T11:32:00;6.47;;;5.47;;
1925;SDS011;964;42.606;23.588;2023-08-30T11:34:27;7.15;;;6.00;;
1925;SDS011;964;42.606;23.588;2023-08-30T11:36:54;6.60;;;5.95;;
1925;SDS011;964;42.606;23.588;2023-08-30T11:39:22;6.70;;;5.55;;
1925;SDS011;964;42.606;23.588;2023-08-30T11:41:49;7.68;;;5.72;;
1925;SDS011;964;42.606;23.588;2023-08-30T11:44:16;6.60;;;5.70;;
1925;SDS011;964;42.606;23.588;2023-08-30T11:46:43;8.00;;;6.38;;
1925;SDS011;964;42.606;23.588;2023-08-30T11:49:10;6.38;;;5.82;;
1925;SDS011;964;42.606;23.588;2023-08-30T11:51:37;7.13;;;5.78;;
1925;SDS011;964;42.606;23.588;2023-08-30T11:54:04;7.43;;;5.43;;
1925;SDS011;964;42.606;23.588;2023-08-30T11:56:34;6.93;;;6.03;;
1925;SDS011;964;42.606;23.588;2023-08-30T11:59:01;7.60;;;6.63;;
1925;SDS011;964;42.606;23.588;2023-08-30T12:01:29;6.65;;;6.07;;
1925;SDS011;964;42.606;23.588;2023-08-30T12:03:56;6.40;;;5.80;;
1925;SDS011;964;42.606;23.588;2023-08-30T12:06:22;6.40;;;5.75;;
1925;SDS011;964;42.606;23.588;2023-08-30T12:08:56;6.32;;;5.82;;
1925;SDS011;964;42.606;23.588;2023-08-30T12:11:24;6.25;;;5.57;;
1925;SDS011;964;42.606;23.588;2023-08-30T12:13:52;7.50;;;6.50;;
1925;SDS011;964;42.606;23.588;2023-08-30T12:16:20;7.75;;;6.13;;
1925;SDS011;964;42.606;23.588;2023-08-30T12:18:50;7.25;;;6.55;;
1925;SDS011;964;42.606;23.588;2023-08-30T12:21:16;10.02;;;6.47;;
1925;SDS011;964;42.606;23.588;2023-08-30T12:23:43;6.90;;;6.30;;
1925;SDS011;964;42.606;23.588;2023-08-30T12:26:10;7.57;;;5.82;;
1925;SDS011;964;42.606;23.588;2023-08-30T12:28:37;7.00;;;6.28;;
1925;SDS011;964;42.606;23.588;2023-08-30T12:31:06;7.45;;;5.80;;
1925;SDS011;964;42.606;23.588;2023-08-30T12:33:33;7.32;;;5.65;;
1925;SDS011;964;42.606;23.588;2023-08-30T12:36:00;8.43;;;5.40;;
1925;SDS011;964;42.606;23.588;2023-08-30T12:38:28;7.07;;;6.20;;
1925;SDS011;964;42.606;23.588;2023-08-30T12:40:56;6.82;;;6.20;;
1925;SDS011;964;42.606;23.588;2023-08-30T12:43:23;8.48;;;6.35;;
1925;SDS011;964;42.606;23.588;2023-08-30T12:45:50;6.80;;;6.10;;
1925;SDS011;964;42.606;23.588;2023-08-30T12:48:18;6.75;;;6.13;;
1925;SDS011;964;42.606;23.588;2023-08-30T12:50:45;8.05;;;6.78;;
1925;SDS011;964;42.606;23.588;2023-08-30T12:53:13;7.53;;;6.72;;
1925;SDS011;964;42.606;23.588;2023-08-30T12:55:41;7.47;;;6.55;;
1925;SDS011;964;42.606;23.588;2023-08-30T12:58:08;8.60;;;6.80;;
1925;SDS011;964;42.606;23.588;2023-08-30T13:00:36;6.65;;;6.05;;
1925;SDS011;964;42.606;23.588;2023-08-30T13:03:03;8.10;;;7.30;;
1925;SDS011;964;42.606;23.588;2023-08-30T13:05:32;7.55;;;6.80;;
1925;SDS011;964;42.606;23.588;2023-08-30T13:07:59;6.35;;;5.72;;
1925;SDS011;964;42.606;23.588;2023-08-30T13:10:26;6.68;;;6.05;;
1925;SDS011;964;42.606;23.588;2023-08-30T13:12:53;7.88;;;6.75;;
1925;SDS011;964;42.606;23.588;2023-08-30T13:15:20;8.95;;;7.10;;
1925;SDS011;964;42.606;23.588;2023-08-30T13:17:47;11.10;;;6.97;;
1925;SDS011;964;42.606;23.588;2023-08-30T13:20:13;8.75;;;6.40;;
1925;SDS011;964;42.606;23.588;2023-08-30T13:22:43;11.13;;;6.40;;
1925;SDS011;964;42.606;23.588;2023-08-30T13:25:10;7.83;;;7.03;;
1925;SDS011;964;42.606;23.588;2023-08-30T13:27:37;9.70;;;7.20;;
1925;SDS011;964;42.606;23.588;2023-08-30T13:30:04;8.30;;;6.53;;
1925;SDS011;964;42.606;23.588;2023-08-30T13:32:31;6.68;;;6.03;;
1925;SDS011;964;42.606;23.588;2023-08-30T13:34:58;8.77;;;6.18;;
1925;SDS011;964;42.606;23.588;2023-08-30T13:37:25;10.30;;;7.18;;
1925;SDS011;964;42.606;23.588;2023-08-30T13:39:53;7.28;;;6.60;;
1925;SDS011;964;42.606;23.588;2023-08-30T13:42:20;9.57;;;6.80;;
1925;SDS011;964;42.606;23.588;2023-08-30T13:44:49;12.20;;;6.50;;
1925;SDS011;964;42.606;23.588;2023-08-30T13:47:17;11.40;;;6.40;;
1925;SDS011;964;42.606;23.588;2023-08-30T13:49:45;6.65;;;6.05;;
1925;SDS011;964;42.606;23.588;2023-08-30T13:52:11;7.32;;;6.07;;
1925;SDS011;964;42.606;23.588;2023-08-30T13:54:38;7.55;;;6.38;;
1925;SDS011;964;42.606;23.588;2023-08-30T13:57:06;7.28;;;6.18;;
1925;SDS011;964;42.606;23.588;2023-08-30T13:59:32;7.47;;;6.78;;
1925;SDS011;964;42.606;23.588;2023-08-30T14:02:00;7.03;;;6.13;;
1925;SDS011;964;42.606;23.588;2023-08-30T14:04:29;6.97;;;5.97;;
1925;SDS011;964;42.606;23.588;2023-08-30T14:06:57;6.63;;;6.10;;
1925;SDS011;964;42.606;23.588;2023-08-30T14:09:24;7.25;;;6.47;;
1925;SDS011;964;42.606;23.588;2023-08-30T14:11:50;7.55;;;6.20;;
1925;SDS011;964;42.606;23.588;2023-08-30T14:14:18;6.97;;;6.25;;
1925;SDS011;964;42.606;23.588;2023-08-30T14:16:45;6.83;;;6.23;;
1925;SDS011;964;42.606;23.588;2023-08-30T14:19:11;8.77;;;6.97;;
1925;SDS011;964;42.606;23.588;2023-08-30T14:21:38;8.05;;;6.53;;
1925;SDS011;964;42.606;23.588;2023-08-30T14:24:05;7.13;;;6.32;;
1925;SDS011;964;42.606;23.588;2023-08-30T14:26:31;6.80;;;6.10;;
1925;SDS011;964;42.606;23.588;2023-08-30T14:28:58;6.93;;;6.20;;
1925;SDS011;964;42.606;23.588;2023-08-30T14:31:26;7.37;;;6.57;;
1925;SDS011;964;42.606;23.588;2023-08-30T14:33:55;7.30;;;6.03;;
1925;SDS011;964;42.606;23.588;2023-08-30T14:36:23;9.70;;;6.23;;
1925;SDS011;964;42.606;23.588;2023-08-30T14:38:49;7.47;;;6.77;;
1925;SDS011;964;42.606;23.588;2023-08-30T14:41:16;11.97;;;7.20;;
1925;SDS011;964;42.606;23.588;2023-08-30T14:43:43;7.57;;;6.80;;
1925;SDS011;964;42.606;23.588;2023-08-30T14:46:09;8.80;;;6.90;;
1925;SDS011;964;42.606;23.588;2023-08-30T14:48:37;8.07;;;6.63;;
1925;SDS011;964;42.606;23.588;2023-08-30T14:51:05;9.37;;;6.63;;
1925;SDS011;964;42.606;23.588;2023-08-30T14:53:32;7.17;;;6.47;;
1925;SDS011;964;42.606;23.588;2023-08-30T14:55:59;11.17;;;6.93;;
1925;SDS011;964;42.606;23.588;2023-08-30T14:58:25;9.90;;;6.80;;
1925;SDS011;964;42.606;23.588;2023-08-30T15:00:52;11.97;;;6.90;;
1925;SDS011;964;42.606;23.588;2023-08-30T15:03:20;7.43;;;6.33;;
1925;SDS011;964;42.606;23.588;2023-08-30T15:05:53;11.63;;;6.60;;
1925;SDS011;964;42.606;23.588;2023-08-30T15:08:20;9.77;;;6.83;;